Time,TemperatureF,DewpointF,PressureIn,WindDirection,WindDirectionDegrees,WindSpeedMPH,WindSpeedGustMPH,Humidity,HourlyPrecipIn,Conditions,Clouds,dailyrainin,SoftwareType,DateUTC
2013-02-11 00:02:00,44.0,15.0,29.92,ESE,109,0.0,0.0,31,0.00,,,0.00,,2013-02-11 06:02:00,
2013-02-11 00:11:00,44.0,15.0,29.92,ESE,109,0.0,0.0,31,0.00,,,0.00,,2013-02-11 06:11:00,
2013-02-11 00:21:00,44.0,15.0,29.92,ESE,109,0.0,0.0,31,0.00,,,0.00,,2013-02-11 06:21:00,
2013-02-11 00:42:00,41.0,18.0,29.93,ESE,109,0.0,0.0,39,0.00,,,0.00,,2013-02-11 06:42:00,
2013-02-11 00:52:00,41.0,18.0,29.93,ESE,109,0.0,0.0,39,0.00,,,0.00,,2013-02-11 06:52:00,
2013-02-11 01:01:00,41.0,18.0,29.93,ESE,109,0.0,0.0,39,0.00,,,0.00,,2013-02-11 07:01:00,
2013-02-11 01:11:00,41.0,19.0,29.92,ESE,109,0.0,0.0,40,0.00,,,0.00,,2013-02-11 07:11:00,
2013-02-11 01:21:00,41.0,19.0,29.92,ESE,109,0.0,0.0,40,0.00,,,0.00,,2013-02-11 07:21:00,
2013-02-11 01:30:00,41.0,20.0,29.93,ESE,112,0.0,0.0,43,0.00,,,0.00,,2013-02-11 07:30:00,
2013-02-11 01:32:00,41.0,19.0,29.92,ESE,109,0.0,0.0,40,0.00,,,0.00,,2013-02-11 07:32:00,
2013-02-11 01:42:00,41.0,20.0,29.93,ESE,112,0.0,0.0,43,0.00,,,0.00,,2013-02-11 07:42:00,
2013-02-11 01:52:00,41.0,20.0,29.93,ESE,112,0.0,0.0,43,0.00,,,0.00,,2013-02-11 07:52:00,
2013-02-11 02:01:00,41.0,20.0,29.93,ESE,112,0.0,0.0,43,0.00,,,0.00,,2013-02-11 08:01:00,
2013-02-11 02:11:00,41.0,20.0,29.93,ESE,112,0.0,0.0,43,0.00,,,0.00,,2013-02-11 08:11:00,
2013-02-11 02:21:00,41.0,20.0,29.93,ESE,112,0.0,0.0,43,0.00,,,0.00,,2013-02-11 08:21:00,
2013-02-11 02:42:00,39.0,20.0,29.91,ESE,112,0.0,0.0,46,0.00,,,0.00,,2013-02-11 08:42:00,
2013-02-11 02:52:00,39.0,20.0,29.91,ESE,112,0.0,0.0,46,0.00,,,0.00,,2013-02-11 08:52:00,
2013-02-11 03:01:00,39.0,20.0,29.91,ESE,112,0.0,0.0,46,0.00,,,0.00,,2013-02-11 09:01:00,
2013-02-11 03:12:00,39.0,20.0,29.91,ESE,112,0.0,0.0,46,0.00,,,0.00,,2013-02-11 09:12:00,
2013-02-11 03:21:00,39.0,20.0,29.90,ESE,112,0.0,0.0,47,0.00,,,0.00,,2013-02-11 09:21:00,
2013-02-11 03:30:00,38.0,20.0,29.90,ESE,112,0.0,0.0,47,0.00,,,0.00,,2013-02-11 09:30:00,
2013-02-11 03:31:00,39.0,20.0,29.90,ESE,112,0.0,0.0,47,0.00,,,0.00,,2013-02-11 09:31:00,
2013-02-11 03:42:00,39.0,20.0,29.90,ESE,112,0.0,0.0,47,0.00,,,0.00,,2013-02-11 09:42:00,
2013-02-11 03:52:00,38.0,20.0,29.90,ESE,112,0.0,0.0,47,0.00,,,0.00,,2013-02-11 09:52:00,
2013-02-11 04:01:00,38.0,20.0,29.90,ESE,112,0.0,0.0,47,0.00,,,0.00,,2013-02-11 10:01:00,
2013-02-11 04:11:00,38.0,20.0,29.90,ESE,112,0.0,0.0,47,0.00,,,0.00,,2013-02-11 10:11:00,
2013-02-11 04:21:00,38.0,20.0,29.90,ESE,112,0.0,0.0,47,0.00,,,0.00,,2013-02-11 10:21:00,
2013-02-11 04:52:00,37.0,20.0,29.90,ESE,112,0.0,0.0,49,0.00,,,0.00,,2013-02-11 10:52:00,
2013-02-11 05:01:00,37.0,20.0,29.90,ESE,112,0.0,0.0,49,0.00,,,0.00,,2013-02-11 11:01:00,
2013-02-11 05:11:00,37.0,20.0,29.90,ESE,112,0.0,0.0,49,0.00,,,0.00,,2013-02-11 11:11:00,
2013-02-11 05:22:00,37.0,21.0,29.89,ESE,112,0.0,0.0,51,0.00,,,0.00,,2013-02-11 11:22:00,
2013-02-11 05:32:00,37.0,21.0,29.89,ESE,112,0.0,0.0,51,0.00,,,0.00,,2013-02-11 11:32:00,
2013-02-11 05:42:00,37.0,21.0,29.88,ESE,112,0.0,0.0,52,0.00,,,0.00,,2013-02-11 11:42:00,
2013-02-11 05:52:00,37.0,21.0,29.88,ESE,112,0.0,0.0,52,0.00,,,0.00,,2013-02-11 11:52:00,
2013-02-11 06:00:00,37.0,21.0,29.88,ESE,112,0.0,0.0,52,0.00,,,0.00,,2013-02-11 12:00:00,
2013-02-11 06:03:00,37.0,21.0,29.88,ESE,112,0.0,0.0,52,0.00,,,0.00,,2013-02-11 12:03:00,
2013-02-11 06:12:00,37.0,21.0,29.88,ESE,112,0.0,0.0,52,0.00,,,0.00,,2013-02-11 12:12:00,
2013-02-11 06:22:00,37.0,21.0,29.88,ESE,112,0.0,0.0,52,0.00,,,0.00,,2013-02-11 12:22:00,
2013-02-11 06:32:00,37.0,21.0,29.88,ESE,112,0.0,0.0,52,0.00,,,0.00,,2013-02-11 12:32:00,
2013-02-11 06:42:00,37.0,21.0,29.88,ESE,112,0.0,0.0,52,0.00,,,0.00,,2013-02-11 12:42:00,
2013-02-11 06:52:00,37.0,21.0,29.88,ESE,112,0.0,0.0,52,0.00,,,0.00,,2013-02-11 12:52:00,
2013-02-11 08:01:00,35.0,21.0,29.91,ESE,112,0.0,0.0,57,0.00,,,0.00,,2013-02-11 14:01:00,
2013-02-11 08:22:00,35.0,21.0,29.91,ESE,112,0.0,0.0,57,0.00,,,0.00,,2013-02-11 14:22:00,
2013-02-11 08:33:00,35.0,21.0,29.91,ESE,112,0.0,0.0,57,0.00,,,0.00,,2013-02-11 14:33:00,
2013-02-11 08:42:00,35.0,21.0,29.91,ESE,112,0.0,0.0,57,0.00,,,0.00,,2013-02-11 14:42:00,
2013-02-11 08:53:00,35.0,21.0,29.91,ESE,112,0.0,0.0,57,0.00,,,0.00,,2013-02-11 14:53:00,
2013-02-11 09:22:00,42.0,26.0,29.92,ESE,112,0.0,0.0,52,0.00,,,0.00,,2013-02-11 15:22:00,
2013-02-11 09:32:00,42.0,26.0,29.92,ESE,112,0.0,0.0,52,0.00,,,0.00,,2013-02-11 15:32:00,
2013-02-11 09:42:00,48.0,26.0,29.92,SSW,196,0.0,0.0,42,0.00,,,0.00,,2013-02-11 15:42:00,
2013-02-11 09:52:00,48.0,26.0,29.92,SSW,196,0.0,0.0,42,0.00,,,0.00,,2013-02-11 15:52:00,
2013-02-11 10:11:00,48.0,26.0,29.92,SSW,196,0.0,0.0,42,0.00,,,0.00,,2013-02-11 16:11:00,
2013-02-11 10:22:00,54.0,26.0,29.92,SSE,158,2.0,7.0,33,0.00,,,0.00,,2013-02-11 16:22:00,
2013-02-11 10:42:00,56.0,23.0,29.93,South,181,3.0,12.0,28,0.00,,,0.00,,2013-02-11 16:42:00,
2013-02-11 10:52:00,56.0,23.0,29.93,South,181,3.0,12.0,28,0.00,,,0.00,,2013-02-11 16:52:00,
2013-02-11 11:01:00,56.0,23.0,29.93,South,181,3.0,12.0,28,0.00,,,0.00,,2013-02-11 17:01:00,
2013-02-11 11:11:00,56.0,23.0,29.93,South,181,3.0,12.0,28,0.00,,,0.00,,2013-02-11 17:11:00,
2013-02-11 11:21:00,58.0,28.0,29.91,WSW,246,8.0,16.0,31,0.00,,,0.00,,2013-02-11 17:21:00,
2013-02-11 11:30:00,60.0,30.0,29.90,South,175,4.0,14.0,32,0.00,,,0.00,,2013-02-11 17:30:00,
2013-02-11 11:32:00,58.0,28.0,29.91,WSW,246,8.0,16.0,31,0.00,,,0.00,,2013-02-11 17:32:00,
2013-02-11 11:42:00,58.0,28.0,29.91,WSW,246,8.0,16.0,31,0.00,,,0.00,,2013-02-11 17:42:00,
2013-02-11 11:53:00,60.0,30.0,29.90,South,175,4.0,14.0,32,0.00,,,0.00,,2013-02-11 17:53:00,
2013-02-11 12:01:00,60.0,30.0,29.90,South,175,4.0,14.0,32,0.00,,,0.00,,2013-02-11 18:01:00,
2013-02-11 12:11:00,60.0,30.0,29.90,South,175,4.0,14.0,32,0.00,,,0.00,,2013-02-11 18:11:00,
2013-02-11 12:21:00,60.0,30.0,29.90,South,175,4.0,14.0,32,0.00,,,0.00,,2013-02-11 18:21:00,
2013-02-11 12:30:00,62.0,28.0,29.88,SSW,202,3.0,19.0,27,0.00,,,0.00,,2013-02-11 18:30:00,
2013-02-11 12:42:00,62.0,28.0,29.88,SSW,202,3.0,19.0,27,0.00,,,0.00,,2013-02-11 18:42:00,
2013-02-11 12:53:00,62.0,28.0,29.88,SSW,202,3.0,19.0,27,0.00,,,0.00,,2013-02-11 18:53:00,
2013-02-11 13:02:00,62.0,28.0,29.88,SSW,202,3.0,19.0,27,0.00,,,0.00,,2013-02-11 19:02:00,
2013-02-11 13:11:00,62.0,28.0,29.88,SSW,202,3.0,19.0,27,0.00,,,0.00,,2013-02-11 19:11:00,
2013-02-11 13:21:00,62.0,28.0,29.88,SSW,202,3.0,19.0,27,0.00,,,0.00,,2013-02-11 19:21:00,
2013-02-11 13:52:00,64.0,26.0,29.84,SSW,209,5.0,14.0,24,0.00,,,0.00,,2013-02-11 19:52:00,
2013-02-11 14:01:00,64.0,26.0,29.84,SSW,209,5.0,14.0,24,0.00,,,0.00,,2013-02-11 20:01:00,
2013-02-11 14:11:00,64.0,25.0,29.83,West,268,1.0,19.0,23,0.00,,,0.00,,2013-02-11 20:11:00,
2013-02-11 14:21:00,64.0,25.0,29.83,West,268,1.0,19.0,23,0.00,,,0.00,,2013-02-11 20:21:00,
2013-02-11 14:32:00,64.0,25.0,29.83,West,268,1.0,19.0,23,0.00,,,0.00,,2013-02-11 20:32:00,
2013-02-11 14:42:00,64.0,25.0,29.83,West,268,1.0,19.0,23,0.00,,,0.00,,2013-02-11 20:42:00,
2013-02-11 14:52:00,64.0,25.0,29.83,West,268,1.0,19.0,23,0.00,,,0.00,,2013-02-11 20:52:00,
2013-02-11 15:52:00,65.0,25.0,29.80,South,191,0.0,28.0,22,0.00,,,0.00,,2013-02-11 21:52:00,
2013-02-11 16:02:00,65.0,25.0,29.80,South,191,0.0,28.0,22,0.00,,,0.00,,2013-02-11 22:02:00,
2013-02-11 16:11:00,65.0,25.0,29.80,NW,315,6.0,25.0,22,0.00,,,0.00,,2013-02-11 22:11:00,
2013-02-11 16:22:00,65.0,25.0,29.80,NW,315,6.0,25.0,22,0.00,,,0.00,,2013-02-11 22:22:00,
2013-02-11 16:32:00,65.0,25.0,29.80,NW,315,6.0,25.0,22,0.00,,,0.00,,2013-02-11 22:32:00,
2013-02-11 16:42:00,65.0,25.0,29.80,NW,315,6.0,25.0,22,0.00,,,0.00,,2013-02-11 22:42:00,
2013-02-11 16:52:00,65.0,26.0,29.80,SSW,213,3.0,19.0,23,0.00,,,0.00,,2013-02-11 22:52:00,
2013-02-11 17:01:00,65.0,26.0,29.80,SSW,213,3.0,19.0,23,0.00,,,0.00,,2013-02-11 23:01:00,
2013-02-11 17:11:00,65.0,26.0,29.80,SSW,213,3.0,19.0,23,0.00,,,0.00,,2013-02-11 23:11:00,
2013-02-11 17:21:00,64.0,27.0,29.80,SSW,200,1.0,9.0,25,0.00,,,0.00,,2013-02-11 23:21:00,
2013-02-11 17:30:00,64.0,27.0,29.80,SSW,203,5.0,13.0,25,0.00,,,0.00,,2013-02-11 23:30:00,
2013-02-11 17:32:00,64.0,27.0,29.80,SSW,200,1.0,9.0,25,0.00,,,0.00,,2013-02-11 23:32:00,
2013-02-11 17:42:00,64.0,27.0,29.80,SSW,200,1.0,9.0,25,0.00,,,0.00,,2013-02-11 23:42:00,
2013-02-11 17:52:00,64.0,27.0,29.80,SSW,203,5.0,13.0,25,0.00,,,0.00,,2013-02-11 23:52:00,
2013-02-11 18:01:00,64.0,27.0,29.80,SSW,203,5.0,13.0,25,0.00,,,0.00,,2013-02-12 00:01:00,
2013-02-11 18:11:00,64.0,27.0,29.80,SSW,203,5.0,13.0,25,0.00,,,0.00,,2013-02-12 00:11:00,
2013-02-11 18:22:00,64.0,27.0,29.80,SSW,203,5.0,13.0,25,0.00,,,0.00,,2013-02-12 00:22:00,
2013-02-11 19:00:00,59.0,26.0,29.77,SW,230,0.0,0.0,28,0.00,,,0.00,,2013-02-12 01:00:00,
2013-02-11 19:22:00,59.0,26.0,29.77,SW,230,0.0,0.0,28,0.00,,,0.00,,2013-02-12 01:22:00,
2013-02-11 19:32:00,59.0,26.0,29.77,SW,230,0.0,0.0,28,0.00,,,0.00,,2013-02-12 01:32:00,
2013-02-11 19:42:00,59.0,26.0,29.77,SW,230,0.0,0.0,28,0.00,,,0.00,,2013-02-12 01:42:00,
2013-02-11 19:52:00,59.0,26.0,29.77,SW,230,0.0,0.0,28,0.00,,,0.00,,2013-02-12 01:52:00,
2013-02-11 20:53:00,56.0,25.0,29.77,WNW,289,0.0,0.0,30,0.00,,,0.00,,2013-02-12 02:53:00,
2013-02-11 21:02:00,56.0,25.0,29.77,WNW,289,0.0,0.0,30,0.00,,,0.00,,2013-02-12 03:02:00,
2013-02-11 21:11:00,55.0,25.0,29.79,WNW,289,0.0,0.0,31,0.00,,,0.00,,2013-02-12 03:11:00,
2013-02-11 21:21:00,55.0,25.0,29.79,WNW,289,0.0,0.0,31,0.00,,,0.00,,2013-02-12 03:21:00,
2013-02-11 21:30:00,53.0,28.0,29.80,ENE,68,0.0,0.0,38,0.00,,,0.00,,2013-02-12 03:30:00,
2013-02-11 21:31:00,55.0,25.0,29.79,WNW,289,0.0,0.0,31,0.00,,,0.00,,2013-02-12 03:31:00,
2013-02-11 21:42:00,53.0,28.0,29.80,ENE,68,0.0,0.0,38,0.00,,,0.00,,2013-02-12 03:42:00,
2013-02-11 21:52:00,53.0,28.0,29.80,ENE,68,0.0,0.0,38,0.00,,,0.00,,2013-02-12 03:52:00,
2013-02-11 22:01:00,53.0,28.0,29.80,ENE,68,0.0,0.0,38,0.00,,,0.00,,2013-02-12 04:01:00,
2013-02-11 22:11:00,53.0,28.0,29.80,ENE,68,0.0,0.0,38,0.00,,,0.00,,2013-02-12 04:11:00,
2013-02-11 22:21:00,53.0,28.0,29.80,ENE,68,0.0,0.0,38,0.00,,,0.00,,2013-02-12 04:21:00,
2013-02-11 22:52:00,49.0,31.0,29.80,ENE,68,0.0,0.0,50,0.00,,,0.00,,2013-02-12 04:52:00,
2013-02-11 23:00:00,48.0,32.0,29.80,NW,309,0.0,0.0,54,0.00,,,0.00,,2013-02-12 05:00:00,
2013-02-11 23:01:00,49.0,31.0,29.80,ENE,68,0.0,0.0,50,0.00,,,0.00,,2013-02-12 05:01:00,
2013-02-11 23:11:00,48.0,32.0,29.80,NW,309,0.0,0.0,54,0.00,,,0.00,,2013-02-12 05:11:00,
2013-02-11 23:21:00,48.0,32.0,29.80,NW,309,0.0,0.0,54,0.00,,,0.00,,2013-02-12 05:21:00,
2013-02-11 23:31:00,48.0,32.0,29.80,NW,309,0.0,0.0,54,0.00,,,0.00,,2013-02-12 05:31:00,
2013-02-11 23:42:00,48.0,32.0,29.80,NW,309,0.0,0.0,54,0.00,,,0.00,,2013-02-12 05:42:00,
2013-02-11 23:52:00,48.0,32.0,29.80,NW,309,0.0,0.0,54,0.00,,,0.00,,2013-02-12 05:52:00,